sensor_id;sensor_type;location;lat;lon;timestamp;P1;durP1;ratioP1;P2;durP2;ratioP2
43142;SDS011;28750;59.842;17.584;2023-10-31T00:02:10;2.08;;;0.57;;
43142;SDS011;28750;59.842;17.584;2023-10-31T00:04:37;0.75;;;0.75;;
43142;SDS011;28750;59.842;17.584;2023-10-31T00:07:04;0.77;;;0.75;;
43142;SDS011;28750;59.842;17.584;2023-10-31T00:09:32;1.65;;;0.80;;
43142;SDS011;28750;59.842;17.584;2023-10-31T00:11:59;1.52;;;0.85;;
43142;SDS011;28750;59.842;17.584;2023-10-31T00:14:26;0.50;;;0.50;;
43142;SDS011;28750;59.842;17.584;2023-10-31T00:16:53;1.40;;;0.80;;
43142;SDS011;28750;59.842;17.584;2023-10-31T00:19:20;2.42;;;0.57;;
43142;SDS011;28750;59.842;17.584;2023-10-31T00:21:48;3.00;;;0.90;;
43142;SDS011;28750;59.842;17.584;2023-10-31T00:24:15;0.60;;;0.55;;
43142;SDS011;28750;59.842;17.584;2023-10-31T00:26:42;2.60;;;0.60;;
43142;SDS011;28750;59.842;17.584;2023-10-31T00:29:09;0.90;;;0.80;;
43142;SDS011;28750;59.842;17.584;2023-10-31T00:31:36;0.63;;;0.63;;
43142;SDS011;28750;59.842;17.584;2023-10-31T00:34:06;0.52;;;0.43;;
43142;SDS011;28750;59.842;17.584;2023-10-31T00:36:34;1.02;;;0.88;;
43142;SDS011;28750;59.842;17.584;2023-10-31T00:39:01;2.72;;;0.70;;
43142;SDS011;28750;59.842;17.584;2023-10-31T00:41:28;1.58;;;0.95;;
43142;SDS011;28750;59.842;17.584;2023-10-31T00:43:55;0.38;;;0.38;;
43142;SDS011;28750;59.842;17.584;2023-10-31T00:46:22;0.63;;;0.35;;
43142;SDS011;28750;59.842;17.584;2023-10-31T00:48:49;2.72;;;0.55;;
43142;SDS011;28750;59.842;17.584;2023-10-31T00:51:16;1.60;;;0.50;;
43142;SDS011;28750;59.842;17.584;2023-10-31T00:53:43;0.88;;;0.63;;
43142;SDS011;28750;59.842;17.584;2023-10-31T00:56:10;3.50;;;0.57;;
43142;SDS011;28750;59.842;17.584;2023-10-31T00:58:37;0.30;;;0.30;;
43142;SDS011;28750;59.842;17.584;2023-10-31T01:01:05;1.08;;;0.80;;
43142;SDS011;28750;59.842;17.584;2023-10-31T01:03:32;2.40;;;0.30;;
43142;SDS011;28750;59.842;17.584;2023-10-31T01:05:59;0.75;;;0.60;;
43142;SDS011;28750;59.842;17.584;2023-10-31T01:08:26;0.75;;;0.68;;
43142;SDS011;28750;59.842;17.584;2023-10-31T01:10:53;1.15;;;0.80;;
43142;SDS011;28750;59.842;17.584;2023-10-31T01:13:20;0.70;;;0.70;;
43142;SDS011;28750;59.842;17.584;2023-10-31T01:15:48;0.63;;;0.52;;
43142;SDS011;28750;59.842;17.584;2023-10-31T01:18:15;0.57;;;0.57;;
43142;SDS011;28750;59.842;17.584;2023-10-31T01:20:42;0.60;;;0.60;;
43142;SDS011;28750;59.842;17.584;2023-10-31T01:23:09;1.95;;;0.70;;
43142;SDS011;28750;59.842;17.584;2023-10-31T01:25:36;1.00;;;1.00;;
43142;SDS011;28750;59.842;17.584;2023-10-31T01:28:03;0.60;;;0.60;;
43142;SDS011;28750;59.842;17.584;2023-10-31T01:30:31;1.20;;;0.50;;
43142;SDS011;28750;59.842;17.584;2023-10-31T01:32:58;1.73;;;0.43;;
43142;SDS011;28750;59.842;17.584;2023-10-31T01:35:25;0.38;;;0.38;;
43142;SDS011;28750;59.842;17.584;2023-10-31T01:37:52;1.17;;;0.50;;
43142;SDS011;28750;59.842;17.584;2023-10-31T01:40:20;0.40;;;0.40;;
43142;SDS011;28750;59.842;17.584;2023-10-31T01:42:47;0.73;;;0.43;;
43142;SDS011;28750;59.842;17.584;2023-10-31T01:45:13;0.55;;;0.40;;
43142;SDS011;28750;59.842;17.584;2023-10-31T01:47:40;0.30;;;0.30;;
43142;SDS011;28750;59.842;17.584;2023-10-31T01:50:09;2.45;;;0.30;;
43142;SDS011;28750;59.842;17.584;2023-10-31T01:52:36;2.28;;;0.40;;
43142;SDS011;28750;59.842;17.584;2023-10-31T01:55:04;0.25;;;0.25;;
43142;SDS011;28750;59.842;17.584;2023-10-31T01:57:31;0.20;;;0.20;;
43142;SDS011;28750;59.842;17.584;2023-10-31T01:59:59;0.50;;;0.50;;
43142;SDS011;28750;59.842;17.584;2023-10-31T02:02:26;0.85;;;0.30;;
43142;SDS011;28750;59.842;17.584;2023-10-31T02:04:56;0.60;;;0.10;;
43142;SDS011;28750;59.842;17.584;2023-10-31T02:07:23;0.10;;;0.10;;
43142;SDS011;28750;59.842;17.584;2023-10-31T02:09:50;2.55;;;0.20;;
43142;SDS011;28750;59.842;17.584;2023-10-31T02:12:36;0.10;;;0.10;;
43142;SDS011;28750;59.842;17.584;2023-10-31T02:15:04;0.10;;;0.10;;
43142;SDS011;28750;59.842;17.584;2023-10-31T02:17:31;0.20;;;0.17;;
43142;SDS011;28750;59.842;17.584;2023-10-31T02:19:59;0.43;;;0.10;;
43142;SDS011;28750;59.842;17.584;2023-10-31T02:22:26;0.10;;;0.10;;
43142;SDS011;28750;59.842;17.584;2023-10-31T02:24:53;0.00;;;0.00;;
43142;SDS011;28750;59.842;17.584;2023-10-31T02:27:21;0.40;;;0.00;;
43142;SDS011;28750;59.842;17.584;2023-10-31T02:29:48;0.25;;;0.10;;
43142;SDS011;28750;59.842;17.584;2023-10-31T02:32:15;0.00;;;0.00;;
43142;SDS011;28750;59.842;17.584;2023-10-31T02:34:44;0.10;;;0.10;;
43142;SDS011;28750;59.842;17.584;2023-10-31T02:37:11;0.10;;;0.10;;
43142;SDS011;28750;59.842;17.584;2023-10-31T02:39:39;1.08;;;0.10;;
43142;SDS011;28750;59.842;17.584;2023-10-31T02:42:07;0.00;;;0.00;;
43142;SDS011;28750;59.842;17.584;2023-10-31T02:44:34;0.22;;;0.10;;
43142;SDS011;28750;59.842;17.584;2023-10-31T02:47:02;0.70;;;0.13;;
43142;SDS011;28750;59.842;17.584;2023-10-31T02:49:30;0.10;;;0.10;;
43142;SDS011;28750;59.842;17.584;2023-10-31T02:51:57;0.30;;;0.20;;
43142;SDS011;28750;59.842;17.584;2023-10-31T02:54:24;0.35;;;0.10;;
43142;SDS011;28750;59.842;17.584;2023-10-31T02:56:51;0.00;;;0.00;;
43142;SDS011;28750;59.842;17.584;2023-10-31T02:59:18;0.32;;;0.10;;
43142;SDS011;28750;59.842;17.584;2023-10-31T03:01:45;0.15;;;0.05;;
43142;SDS011;28750;59.842;17.584;2023-10-31T03:04:13;0.10;;;0.10;;
43142;SDS011;28750;59.842;17.584;2023-10-31T03:06:40;1.55;;;0.10;;
43142;SDS011;28750;59.842;17.584;2023-10-31T03:09:07;0.10;;;0.10;;
43142;SDS011;28750;59.842;17.584;2023-10-31T03:11:34;0.20;;;0.20;;
43142;SDS011;28750;59.842;17.584;2023-10-31T03:14:02;0.10;;;0.10;;
43142;SDS011;28750;59.842;17.584;2023-10-31T03:16:29;0.13;;;0.13;;
43142;SDS011;28750;59.842;17.584;2023-10-31T03:18:57;0.60;;;0.25;;
43142;SDS011;28750;59.842;17.584;2023-10-31T03:21:25;0.10;;;0.10;;
43142;SDS011;28750;59.842;17.584;2023-10-31T03:23:52;0.15;;;0.15;;
43142;SDS011;28750;59.842;17.584;2023-10-31T03:26:21;0.20;;;0.20;;
43142;SDS011;28750;59.842;17.584;2023-10-31T03:28:48;0.88;;;0.20;;
43142;SDS011;28750;59.842;17.584;2023-10-31T03:31:15;0.30;;;0.13;;
43142;SDS011;28750;59.842;17.584;2023-10-31T03:33:42;0.55;;;0.50;;
43142;SDS011;28750;59.842;17.584;2023-10-31T03:36:10;0.30;;;0.20;;
43142;SDS011;28750;59.842;17.584;2023-10-31T03:38:37;0.20;;;0.20;;
43142;SDS011;28750;59.842;17.584;2023-10-31T03:41:04;0.45;;;0.10;;
43142;SDS011;28750;59.842;17.584;2023-10-31T03:43:31;0.13;;;0.13;;
43142;SDS011;28750;59.842;17.584;2023-10-31T03:45:58;0.20;;;0.20;;
43142;SDS011;28750;59.842;17.584;2023-10-31T03:48:26;0.98;;;0.57;;
43142;SDS011;28750;59.842;17.584;2023-10-31T03:50:53;0.50;;;0.30;;
43142;SDS011;28750;59.842;17.584;2023-10-31T03:53:20;0.20;;;0.20;;
43142;SDS011;28750;59.842;17.584;2023-10-31T03:55:47;0.30;;;0.20;;
43142;SDS011;28750;59.842;17.584;2023-10-31T03:58:14;0.13;;;0.10;;
43142;SDS011;28750;59.842;17.584;2023-10-31T04:00:41;0.98;;;0.35;;
43142;SDS011;28750;59.842;17.584;2023-10-31T04:03:09;0.10;;;0.10;;
43142;SDS011;28750;59.842;17.584;2023-10-31T04:05:36;0.13;;;0.13;;
43142;SDS011;28750;59.842;17.584;2023-10-31T04:08:03;0.20;;;0.20;;
43142;SDS011;28750;59.842;17.584;2023-10-31T04:10:30;0.13;;;0.13;;
43142;SDS011;28750;59.842;17.584;2023-10-31T04:12:57;0.47;;;0.20;;
43142;SDS011;28750;59.842;17.584;2023-10-31T04:15:24;0.32;;;0.10;;
43142;SDS011;28750;59.842;17.584;2023-10-31T04:17:51;0.22;;;0.22;;
43142;SDS011;28750;59.842;17.584;2023-10-31T04:20:18;0.80;;;0.20;;
43142;SDS011;28750;59.842;17.584;2023-10-31T04:22:45;0.08;;;0.08;;
43142;SDS011;28750;59.842;17.584;2023-10-31T04:25:12;0.40;;;0.40;;
43142;SDS011;28750;59.842;17.584;2023-10-31T04:27:39;0.40;;;0.40;;
43142;SDS011;28750;59.842;17.584;2023-10-31T04:30:07;1.45;;;0.30;;
43142;SDS011;28750;59.842;17.584;2023-10-31T04:32:34;0.60;;;0.25;;
43142;SDS011;28750;59.842;17.584;2023-10-31T04:35:01;0.25;;;0.20;;
43142;SDS011;28750;59.842;17.584;2023-10-31T04:37:28;0.30;;;0.20;;
43142;SDS011;28750;59.842;17.584;2023-10-31T04:39:55;0.38;;;0.38;;
43142;SDS011;28750;59.842;17.584;2023-10-31T04:42:22;0.30;;;0.28;;
43142;SDS011;28750;59.842;17.584;2023-10-31T04:44:50;0.98;;;0.20;;
43142;SDS011;28750;59.842;17.584;2023-10-31T04:47:17;0.35;;;0.30;;
43142;SDS011;28750;59.842;17.584;2023-10-31T04:49:45;0.30;;;0.30;;
43142;SDS011;28750;59.842;17.584;2023-10-31T04:52:12;0.30;;;0.30;;
43142;SDS011;28750;59.842;17.584;2023-10-31T04:54:39;0.52;;;0.40;;
43142;SDS011;28750;59.842;17.584;2023-10-31T04:57:07;0.55;;;0.40;;
43142;SDS011;28750;59.842;17.584;2023-10-31T04:59:34;0.60;;;0.60;;
43142;SDS011;28750;59.842;17.584;2023-10-31T05:02:01;0.57;;;0.57;;
43142;SDS011;28750;59.842;17.584;2023-10-31T05:04:28;0.77;;;0.32;;
43142;SDS011;28750;59.842;17.584;2023-10-31T05:06:55;0.70;;;0.60;;
43142;SDS011;28750;59.842;17.584;2023-10-31T05:09:22;1.08;;;0.65;;
43142;SDS011;28750;59.842;17.584;2023-10-31T05:11:50;0.80;;;0.70;;
43142;SDS011;28750;59.842;17.584;2023-10-31T05:14:17;0.88;;;0.50;;
43142;SDS011;28750;59.842;17.584;2023-10-31T05:16:44;0.88;;;0.82;;
43142;SDS011;28750;59.842;17.584;2023-10-31T05:19:11;0.68;;;0.63;;
43142;SDS011;28750;59.842;17.584;2023-10-31T05:21:39;1.67;;;0.82;;
43142;SDS011;28750;59.842;17.584;2023-10-31T05:24:06;0.77;;;0.77;;
43142;SDS011;28750;59.842;17.584;2023-10-31T05:26:33;0.77;;;0.63;;
43142;SDS011;28750;59.842;17.584;2023-10-31T05:29:00;0.82;;;0.77;;
43142;SDS011;28750;59.842;17.584;2023-10-31T05:31:28;0.85;;;0.85;;
43142;SDS011;28750;59.842;17.584;2023-10-31T05:33:55;1.35;;;1.10;;
43142;SDS011;28750;59.842;17.584;2023-10-31T05:36:22;1.02;;;1.02;;
43142;SDS011;28750;59.842;17.584;2023-10-31T05:38:50;1.00;;;1.00;;
43142;SDS011;28750;59.842;17.584;2023-10-31T05:41:17;1.10;;;1.00;;
43142;SDS011;28750;59.842;17.584;2023-10-31T05:43:45;2.25;;;1.20;;
43142;SDS011;28750;59.842;17.584;2023-10-31T05:46:12;1.50;;;1.10;;
43142;SDS011;28750;59.842;17.584;2023-10-31T05:48:40;2.08;;;1.40;;
43142;SDS011;28750;59.842;17.584;2023-10-31T05:51:16;1.03;;;1.03;;
43142;SDS011;28750;59.842;17.584;2023-10-31T05:53:46;2.00;;;1.25;;
43142;SDS011;28750;59.842;17.584;2023-10-31T05:56:14;2.95;;;1.45;;
43142;SDS011;28750;59.842;17.584;2023-10-31T05:58:42;1.80;;;1.35;;
43142;SDS011;28750;59.842;17.584;2023-10-31T06:01:10;1.58;;;1.35;;
43142;SDS011;28750;59.842;17.584;2023-10-31T06:03:37;1.48;;;1.38;;
43142;SDS011;28750;59.842;17.584;2023-10-31T06:06:09;2.65;;;1.70;;
43142;SDS011;28750;59.842;17.584;2023-10-31T06:08:38;3.95;;;2.10;;
43142;SDS011;28750;59.842;17.584;2023-10-31T06:11:06;1.70;;;1.60;;
43142;SDS011;28750;59.842;17.584;2023-10-31T06:13:33;3.70;;;2.00;;
43142;SDS011;28750;59.842;17.584;2023-10-31T06:16:00;2.75;;;2.13;;
43142;SDS011;28750;59.842;17.584;2023-10-31T06:18:28;3.30;;;1.75;;
43142;SDS011;28750;59.842;17.584;2023-10-31T06:20:55;2.20;;;1.67;;
43142;SDS011;28750;59.842;17.584;2023-10-31T06:23:22;2.83;;;1.65;;
43142;SDS011;28750;59.842;17.584;2023-10-31T06:25:49;2.22;;;2.03;;
43142;SDS011;28750;59.842;17.584;2023-10-31T06:28:16;3.00;;;2.28;;
43142;SDS011;28750;59.842;17.584;2023-10-31T06:30:43;2.45;;;1.67;;
43142;SDS011;28750;59.842;17.584;2023-10-31T06:33:10;10.45;;;4.68;;
43142;SDS011;28750;59.842;17.584;2023-10-31T06:35:38;3.63;;;1.90;;
43142;SDS011;28750;59.842;17.584;2023-10-31T06:38:05;3.78;;;2.40;;
43142;SDS011;28750;59.842;17.584;2023-10-31T06:40:32;1.70;;;1.60;;
43142;SDS011;28750;59.842;17.584;2023-10-31T06:42:59;5.57;;;3.22;;
43142;SDS011;28750;59.842;17.584;2023-10-31T06:45:27;2.30;;;2.00;;
43142;SDS011;28750;59.842;17.584;2023-10-31T06:47:54;2.17;;;1.98;;
43142;SDS011;28750;59.842;17.584;2023-10-31T06:50:21;3.03;;;2.30;;
43142;SDS011;28750;59.842;17.584;2023-10-31T06:52:49;3.63;;;2.33;;
43142;SDS011;28750;59.842;17.584;2023-10-31T06:55:16;3.17;;;2.40;;
43142;SDS011;28750;59.842;17.584;2023-10-31T06:57:43;3.03;;;2.03;;
43142;SDS011;28750;59.842;17.584;2023-10-31T07:00:10;5.10;;;2.10;;
43142;SDS011;28750;59.842;17.584;2023-10-31T07:02:38;3.45;;;2.08;;
43142;SDS011;28750;59.842;17.584;2023-10-31T07:05:05;3.20;;;1.65;;
43142;SDS011;28750;59.842;17.584;2023-10-31T07:07:33;3.13;;;2.50;;
43142;SDS011;28750;59.842;17.584;2023-10-31T07:10:00;3.47;;;3.13;;
43142;SDS011;28750;59.842;17.584;2023-10-31T07:12:27;3.75;;;2.30;;
43142;SDS011;28750;59.842;17.584;2023-10-31T07:14:54;5.95;;;2.80;;
43142;SDS011;28750;59.842;17.584;2023-10-31T07:17:23;2.88;;;2.10;;
43142;SDS011;28750;59.842;17.584;2023-10-31T07:19:51;2.60;;;2.35;;
43142;SDS011;28750;59.842;17.584;2023-10-31T07:22:18;2.72;;;2.20;;
43142;SDS011;28750;59.842;17.584;2023-10-31T07:24:47;2.92;;;2.42;;
43142;SDS011;28750;59.842;17.584;2023-10-31T07:27:14;7.70;;;2.08;;
43142;SDS011;28750;59.842;17.584;2023-10-31T07:29:41;5.13;;;2.67;;
43142;SDS011;28750;59.842;17.584;2023-10-31T07:32:09;4.65;;;3.05;;
43142;SDS011;28750;59.842;17.584;2023-10-31T07:34:36;3.33;;;2.47;;
43142;SDS011;28750;59.842;17.584;2023-10-31T07:39:34;2.80;;;1.73;;
43142;SDS011;28750;59.842;17.584;2023-10-31T07:42:01;4.63;;;2.25;;
43142;SDS011;28750;59.842;17.584;2023-10-31T07:44:29;2.90;;;1.77;;
43142;SDS011;28750;59.842;17.584;2023-10-31T07:46:56;4.43;;;2.67;;
43142;SDS011;28750;59.842;17.584;2023-10-31T07:49:23;6.25;;;2.40;;
43142;SDS011;28750;59.842;17.584;2023-10-31T07:51:50;2.75;;;1.85;;
43142;SDS011;28750;59.842;17.584;2023-10-31T07:54:17;5.20;;;2.25;;
43142;SDS011;28750;59.842;17.584;2023-10-31T07:56:44;5.70;;;3.50;;
43142;SDS011;28750;59.842;17.584;2023-10-31T07:59:11;4.32;;;2.03;;
43142;SDS011;28750;59.842;17.584;2023-10-31T08:01:38;3.65;;;2.28;;
43142;SDS011;28750;59.842;17.584;2023-10-31T08:04:05;3.47;;;2.20;;
43142;SDS011;28750;59.842;17.584;2023-10-31T08:06:33;3.65;;;2.05;;
43142;SDS011;28750;59.842;17.584;2023-10-31T08:09:00;2.08;;;1.88;;
43142;SDS011;28750;59.842;17.584;2023-10-31T08:11:28;6.18;;;1.98;;
43142;SDS011;28750;59.842;17.584;2023-10-31T08:13:55;2.03;;;1.50;;
43142;SDS011;28750;59.842;17.584;2023-10-31T08:16:22;4.03;;;1.83;;
43142;SDS011;28750;59.842;17.584;2023-10-31T08:18:49;2.83;;;1.88;;
43142;SDS011;28750;59.842;17.584;2023-10-31T08:21:16;3.70;;;2.00;;
43142;SDS011;28750;59.842;17.584;2023-10-31T08:23:43;4.00;;;2.03;;
43142;SDS011;28750;59.842;17.584;2023-10-31T08:26:11;7.32;;;2.13;;
43142;SDS011;28750;59.842;17.584;2023-10-31T08:28:39;5.65;;;3.35;;
43142;SDS011;28750;59.842;17.584;2023-10-31T08:31:07;4.65;;;2.35;;
43142;SDS011;28750;59.842;17.584;2023-10-31T08:33:34;2.97;;;2.13;;
43142;SDS011;28750;59.842;17.584;2023-10-31T08:36:01;4.68;;;2.67;;
43142;SDS011;28750;59.842;17.584;2023-10-31T08:38:28;3.08;;;2.78;;
43142;SDS011;28750;59.842;17.584;2023-10-31T08:40:56;4.43;;;3.17;;
43142;SDS011;28750;59.842;17.584;2023-10-31T08:43:23;4.82;;;3.30;;
43142;SDS011;28750;59.842;17.584;2023-10-31T08:45:50;3.25;;;2.83;;
43142;SDS011;28750;59.842;17.584;2023-10-31T08:48:17;4.88;;;2.40;;
43142;SDS011;28750;59.842;17.584;2023-10-31T08:50:44;5.32;;;2.42;;
43142;SDS011;28750;59.842;17.584;2023-10-31T08:53:11;4.50;;;2.28;;
43142;SDS011;28750;59.842;17.584;2023-10-31T08:55:38;6.07;;;3.08;;
43142;SDS011;28750;59.842;17.584;2023-10-31T08:58:09;5.20;;;3.30;;
43142;SDS011;28750;59.842;17.584;2023-10-31T09:00:37;5.13;;;2.80;;
43142;SDS011;28750;59.842;17.584;2023-10-31T09:03:04;4.35;;;2.67;;
43142;SDS011;28750;59.842;17.584;2023-10-31T09:05:31;2.75;;;2.35;;
43142;SDS011;28750;59.842;17.584;2023-10-31T09:07:59;3.55;;;2.05;;
43142;SDS011;28750;59.842;17.584;2023-10-31T09:10:26;7.38;;;2.38;;
43142;SDS011;28750;59.842;17.584;2023-10-31T09:12:53;3.70;;;1.90;;
43142;SDS011;28750;59.842;17.584;2023-10-31T09:15:20;3.03;;;1.90;;
43142;SDS011;28750;59.842;17.584;2023-10-31T09:17:47;3.30;;;2.20;;
43142;SDS011;28750;59.842;17.584;2023-10-31T09:20:14;3.08;;;1.65;;
43142;SDS011;28750;59.842;17.584;2023-10-31T09:22:41;4.25;;;1.77;;
43142;SDS011;28750;59.842;17.584;2023-10-31T09:25:09;2.17;;;1.38;;
43142;SDS011;28750;59.842;17.584;2023-10-31T09:27:37;3.65;;;1.27;;
43142;SDS011;28750;59.842;17.584;2023-10-31T09:30:07;2.17;;;1.25;;
43142;SDS011;28750;59.842;17.584;2023-10-31T09:32:34;1.65;;;1.20;;
43142;SDS011;28750;59.842;17.584;2023-10-31T09:35:01;1.27;;;1.17;;
43142;SDS011;28750;59.842;17.584;2023-10-31T09:37:28;4.13;;;1.15;;
43142;SDS011;28750;59.842;17.584;2023-10-31T09:39:55;4.55;;;1.02;;
43142;SDS011;28750;59.842;17.584;2023-10-31T09:42:22;2.92;;;1.63;;
43142;SDS011;28750;59.842;17.584;2023-10-31T09:44:50;1.27;;;1.17;;
43142;SDS011;28750;59.842;17.584;2023-10-31T09:47:17;3.20;;;1.27;;
43142;SDS011;28750;59.842;17.584;2023-10-31T09:49:46;1.83;;;0.80;;
43142;SDS011;28750;59.842;17.584;2023-10-31T09:52:14;1.45;;;1.15;;
43142;SDS011;28750;59.842;17.584;2023-10-31T09:54:41;3.03;;;1.08;;
43142;SDS011;28750;59.842;17.584;2023-10-31T09:57:09;5.60;;;1.38;;
43142;SDS011;28750;59.842;17.584;2023-10-31T09:59:36;1.27;;;1.10;;
43142;SDS011;28750;59.842;17.584;2023-10-31T10:02:03;2.60;;;1.00;;
43142;SDS011;28750;59.842;17.584;2023-10-31T10:04:30;0.70;;;0.70;;
43142;SDS011;28750;59.842;17.584;2023-10-31T10:06:58;1.25;;;0.70;;
43142;SDS011;28750;59.842;17.584;2023-10-31T10:09:27;1.33;;;1.20;;
43142;SDS011;28750;59.842;17.584;2023-10-31T10:11:55;1.50;;;1.00;;
43142;SDS011;28750;59.842;17.584;2023-10-31T10:14:23;1.95;;;1.23;;
43142;SDS011;28750;59.842;17.584;2023-10-31T10:16:51;2.88;;;1.13;;
43142;SDS011;28750;59.842;17.584;2023-10-31T10:19:19;1.40;;;1.30;;
43142;SDS011;28750;59.842;17.584;2023-10-31T10:21:48;0.93;;;0.80;;
43142;SDS011;28750;59.842;17.584;2023-10-31T10:24:16;0.73;;;0.70;;
43142;SDS011;28750;59.842;17.584;2023-10-31T10:26:46;1.25;;;0.93;;
43142;SDS011;28750;59.842;17.584;2023-10-31T10:29:14;1.17;;;0.70;;
43142;SDS011;28750;59.842;17.584;2023-10-31T10:31:42;1.48;;;0.70;;
43142;SDS011;28750;59.842;17.584;2023-10-31T10:34:10;0.95;;;0.63;;
43142;SDS011;28750;59.842;17.584;2023-10-31T10:36:40;0.70;;;0.50;;
43142;SDS011;28750;59.842;17.584;2023-10-31T10:39:07;1.48;;;0.63;;
43142;SDS011;28750;59.842;17.584;2023-10-31T10:41:35;0.38;;;0.32;;
43142;SDS011;28750;59.842;17.584;2023-10-31T10:44:06;3.20;;;0.98;;
43142;SDS011;28750;59.842;17.584;2023-10-31T10:46:35;3.83;;;0.57;;
43142;SDS011;28750;59.842;17.584;2023-10-31T10:51:36;0.50;;;0.50;;
43142;SDS011;28750;59.842;17.584;2023-10-31T10:54:19;0.20;;;0.20;;
43142;SDS011;28750;59.842;17.584;2023-10-31T10:56:55;2.58;;;0.50;;
43142;SDS011;28750;59.842;17.584;2023-10-31T10:59:34;0.30;;;0.30;;
43142;SDS011;28750;59.842;17.584;2023-10-31T11:02:08;2.55;;;0.22;;
43142;SDS011;28750;59.842;17.584;2023-10-31T11:04:36;1.67;;;0.47;;
43142;SDS011;28750;59.842;17.584;2023-10-31T11:07:04;2.10;;;0.40;;
43142;SDS011;28750;59.842;17.584;2023-10-31T11:09:32;0.50;;;0.50;;
43142;SDS011;28750;59.842;17.584;2023-10-31T11:12:00;0.73;;;0.50;;
43142;SDS011;28750;59.842;17.584;2023-10-31T11:14:28;1.90;;;0.55;;
43142;SDS011;28750;59.842;17.584;2023-10-31T11:16:58;0.90;;;0.40;;
43142;SDS011;28750;59.842;17.584;2023-10-31T11:19:29;0.65;;;0.50;;
43142;SDS011;28750;59.842;17.584;2023-10-31T11:22:00;0.40;;;0.40;;
43142;SDS011;28750;59.842;17.584;2023-10-31T11:24:30;0.28;;;0.28;;
43142;SDS011;28750;59.842;17.584;2023-10-31T11:26:59;0.50;;;0.40;;
43142;SDS011;28750;59.842;17.584;2023-10-31T11:29:30;1.92;;;0.40;;
43142;SDS011;28750;59.842;17.584;2023-10-31T11:31:58;0.82;;;0.40;;
43142;SDS011;28750;59.842;17.584;2023-10-31T11:34:26;3.47;;;0.82;;
43142;SDS011;28750;59.842;17.584;2023-10-31T11:36:58;0.40;;;0.40;;
43142;SDS011;28750;59.842;17.584;2023-10-31T11:42:41;0.77;;;0.32;;
43142;SDS011;28750;59.842;17.584;2023-10-31T11:45:08;1.48;;;0.40;;
43142;SDS011;28750;59.842;17.584;2023-10-31T11:47:46;1.17;;;0.50;;
43142;SDS011;28750;59.842;17.584;2023-10-31T11:50:17;0.30;;;0.30;;
43142;SDS011;28750;59.842;17.584;2023-10-31T11:52:44;0.28;;;0.22;;
43142;SDS011;28750;59.842;17.584;2023-10-31T11:55:24;0.32;;;0.30;;
43142;SDS011;28750;59.842;17.584;2023-10-31T11:57:51;2.13;;;0.40;;
43142;SDS011;28750;59.842;17.584;2023-10-31T12:00:22;1.40;;;0.30;;
43142;SDS011;28750;59.842;17.584;2023-10-31T12:05:23;0.32;;;0.32;;
43142;SDS011;28750;59.842;17.584;2023-10-31T12:07:50;1.23;;;0.68;;
43142;SDS011;28750;59.842;17.584;2023-10-31T12:10:24;1.10;;;0.40;;
43142;SDS011;28750;59.842;17.584;2023-10-31T12:12:55;0.75;;;0.40;;
43142;SDS011;28750;59.842;17.584;2023-10-31T12:15:23;1.27;;;0.40;;
43142;SDS011;28750;59.842;17.584;2023-10-31T12:17:51;0.52;;;0.40;;
43142;SDS011;28750;59.842;17.584;2023-10-31T12:20:18;3.40;;;0.50;;
43142;SDS011;28750;59.842;17.584;2023-10-31T12:22:45;0.95;;;0.25;;
43142;SDS011;28750;59.842;17.584;2023-10-31T12:25:12;0.43;;;0.43;;
43142;SDS011;28750;59.842;17.584;2023-10-31T12:27:46;0.52;;;0.38;;
43142;SDS011;28750;59.842;17.584;2023-10-31T12:30:17;0.60;;;0.50;;
43142;SDS011;28750;59.842;17.584;2023-10-31T12:32:55;1.55;;;0.13;;
43142;SDS011;28750;59.842;17.584;2023-10-31T12:35:23;1.77;;;0.40;;
43142;SDS011;28750;59.842;17.584;2023-10-31T12:37:52;0.30;;;0.30;;
43142;SDS011;28750;59.842;17.584;2023-10-31T12:40:21;0.50;;;0.30;;
43142;SDS011;28750;59.842;17.584;2023-10-31T12:42:49;0.90;;;0.65;;
43142;SDS011;28750;59.842;17.584;2023-10-31T12:45:17;1.35;;;0.50;;
43142;SDS011;28750;59.842;17.584;2023-10-31T12:47:45;0.50;;;0.50;;
43142;SDS011;28750;59.842;17.584;2023-10-31T12:50:26;1.35;;;0.65;;
43142;SDS011;28750;59.842;17.584;2023-10-31T12:52:54;0.88;;;0.40;;
43142;SDS011;28750;59.842;17.584;2023-10-31T12:55:23;1.65;;;0.40;;
43142;SDS011;28750;59.842;17.584;2023-10-31T12:57:52;0.47;;;0.47;;
43142;SDS011;28750;59.842;17.584;2023-10-31T13:00:20;0.32;;;0.32;;
43142;SDS011;28750;59.842;17.584;2023-10-31T13:05:31;0.20;;;0.20;;
43142;SDS011;28750;59.842;17.584;2023-10-31T13:07:59;0.38;;;0.35;;
43142;SDS011;28750;59.842;17.584;2023-10-31T13:10:29;0.60;;;0.30;;
43142;SDS011;28750;59.842;17.584;2023-10-31T13:12:57;0.28;;;0.28;;
43142;SDS011;28750;59.842;17.584;2023-10-31T13:15:25;0.77;;;0.20;;
43142;SDS011;28750;59.842;17.584;2023-10-31T13:17:52;0.47;;;0.30;;
43142;SDS011;28750;59.842;17.584;2023-10-31T13:20:20;0.47;;;0.20;;
43142;SDS011;28750;59.842;17.584;2023-10-31T13:22:47;1.65;;;0.30;;
43142;SDS011;28750;59.842;17.584;2023-10-31T13:25:15;0.30;;;0.20;;
43142;SDS011;28750;59.842;17.584;2023-10-31T13:27:44;0.13;;;0.13;;
43142;SDS011;28750;59.842;17.584;2023-10-31T13:30:15;1.58;;;0.63;;
43142;SDS011;28750;59.842;17.584;2023-10-31T13:32:43;0.85;;;0.30;;
43142;SDS011;28750;59.842;17.584;2023-10-31T13:35:11;0.22;;;0.22;;
43142;SDS011;28750;59.842;17.584;2023-10-31T13:37:40;0.45;;;0.20;;
43142;SDS011;28750;59.842;17.584;2023-10-31T13:40:07;0.25;;;0.25;;
43142;SDS011;28750;59.842;17.584;2023-10-31T13:42:35;0.38;;;0.20;;
43142;SDS011;28750;59.842;17.584;2023-10-31T13:45:03;0.38;;;0.30;;
43142;SDS011;28750;59.842;17.584;2023-10-31T13:47:30;0.52;;;0.50;;
43142;SDS011;28750;59.842;17.584;2023-10-31T13:49:58;0.35;;;0.20;;
43142;SDS011;28750;59.842;17.584;2023-10-31T13:52:25;0.28;;;0.28;;
43142;SDS011;28750;59.842;17.584;2023-10-31T13:54:52;1.48;;;0.32;;
43142;SDS011;28750;59.842;17.584;2023-10-31T13:57:19;0.30;;;0.30;;
43142;SDS011;28750;59.842;17.584;2023-10-31T13:59:47;0.55;;;0.20;;
43142;SDS011;28750;59.842;17.584;2023-10-31T14:02:16;1.00;;;0.40;;
43142;SDS011;28750;59.842;17.584;2023-10-31T14:04:43;1.23;;;0.40;;
43142;SDS011;28750;59.842;17.584;2023-10-31T14:07:12;1.55;;;0.30;;
43142;SDS011;28750;59.842;17.584;2023-10-31T14:09:46;0.40;;;0.40;;
43142;SDS011;28750;59.842;17.584;2023-10-31T14:12:14;0.73;;;0.30;;
43142;SDS011;28750;59.842;17.584;2023-10-31T14:14:41;16.05;;;2.42;;
43142;SDS011;28750;59.842;17.584;2023-10-31T14:17:08;1.27;;;0.28;;
43142;SDS011;28750;59.842;17.584;2023-10-31T14:19:36;0.40;;;0.40;;
43142;SDS011;28750;59.842;17.584;2023-10-31T14:22:03;0.50;;;0.30;;
43142;SDS011;28750;59.842;17.584;2023-10-31T14:24:31;0.70;;;0.43;;
43142;SDS011;28750;59.842;17.584;2023-10-31T14:26:59;1.55;;;0.20;;
43142;SDS011;28750;59.842;17.584;2023-10-31T14:29:26;0.73;;;0.20;;
43142;SDS011;28750;59.842;17.584;2023-10-31T14:31:53;0.20;;;0.20;;
43142;SDS011;28750;59.842;17.584;2023-10-31T14:34:22;1.02;;;0.45;;
43142;SDS011;28750;59.842;17.584;2023-10-31T14:36:49;0.85;;;0.40;;
43142;SDS011;28750;59.842;17.584;2023-10-31T14:39:16;0.93;;;0.45;;
43142;SDS011;28750;59.842;17.584;2023-10-31T14:41:43;0.30;;;0.30;;
43142;SDS011;28750;59.842;17.584;2023-10-31T14:44:10;0.35;;;0.35;;
43142;SDS011;28750;59.842;17.584;2023-10-31T14:46:37;1.75;;;0.55;;
43142;SDS011;28750;59.842;17.584;2023-10-31T14:49:05;0.30;;;0.30;;
43142;SDS011;28750;59.842;17.584;2023-10-31T14:51:32;0.25;;;0.25;;